Terminal Aerodrome Forecast
Issued by NWS Rapid City, SD

Home | Current Version | Previous Version | Text Only | Print | Product List | Glossary Off
Versions: 1 2 3 4 5 6 7 8 9 10 11 12 13 14 15

286
FTUS43 KUNR 181345 AAA
TAFRAP
TAF AMD
KRAP 181345Z 1814/1912 15007KT P6SM BKN150
     FM181700 19013KT P6SM SCT200
     FM190100 18006KT P6SM BKN120=

USA.gov is the U.S. government's official web portal to all federal, state and local government web resources and services.